sensor_id;sensor_type;location;lat;lon;timestamp;pressure;altitude;pressure_sealevel;temperature;humidity
7337;BME280;54510;42.016;23.098;2023-04-29T00:01:22;-21395.13;;;9.47;54.13
7337;BME280;54510;42.016;23.098;2023-04-29T00:03:48;-21389.84;;;9.28;53.28
7337;BME280;54510;42.016;23.098;2023-04-29T00:06:13;-21385.69;;;9.13;53.95
7337;BME280;54510;42.016;23.098;2023-04-29T00:08:39;-21386.09;;;9.14;54.26
7337;BME280;54510;42.016;23.098;2023-04-29T00:11:04;-21392.22;;;9.36;54.47
7337;BME280;54510;42.016;23.098;2023-04-29T00:13:30;-21392.06;;;9.36;54.36
7337;BME280;54510;42.016;23.098;2023-04-29T00:15:55;-21394.03;;;9.43;54.61
7337;BME280;54510;42.016;23.098;2023-04-29T00:18:20;-21392.91;;;9.39;54.65
7337;BME280;54510;42.016;23.098;2023-04-29T00:20:45;-21388.59;;;9.23;54.90
7337;BME280;54510;42.016;23.098;2023-04-29T00:23:11;-21390.53;;;9.30;55.73
7337;BME280;54510;42.016;23.098;2023-04-29T00:25:36;-21383.72;;;9.05;56.10
7337;BME280;54510;42.016;23.098;2023-04-29T00:28:02;-21385.41;;;9.11;56.49
7337;BME280;54510;42.016;23.098;2023-04-29T00:30:28;-21385.13;;;9.10;56.90
7337;BME280;54510;42.016;23.098;2023-04-29T00:32:53;-21369.00;;;8.52;58.82
7337;BME280;54510;42.016;23.098;2023-04-29T00:35:19;-21377.75;;;8.84;59.40
7337;BME280;54510;42.016;23.098;2023-04-29T00:37:45;-21377.19;;;8.82;57.79
7337;BME280;54510;42.016;23.098;2023-04-29T00:40:10;-21378.44;;;8.86;57.78
7337;BME280;54510;42.016;23.098;2023-04-29T00:42:37;-21372.47;;;8.64;57.19
7337;BME280;54510;42.016;23.098;2023-04-29T00:45:02;-21374.13;;;8.70;56.17
7337;BME280;54510;42.016;23.098;2023-04-29T00:47:28;-21371.91;;;8.62;56.22
7337;BME280;54510;42.016;23.098;2023-04-29T00:49:53;-21367.59;;;8.47;57.20
7337;BME280;54510;42.016;23.098;2023-04-29T00:52:18;-21363.84;;;8.33;57.65
7337;BME280;54510;42.016;23.098;2023-04-29T00:54:44;-21366.19;;;8.42;57.01
7337;BME280;54510;42.016;23.098;2023-04-29T00:57:09;-21366.47;;;8.43;56.92
7337;BME280;54510;42.016;23.098;2023-04-29T00:59:34;-21365.66;;;8.40;56.99
7337;BME280;54510;42.016;23.098;2023-04-29T01:02:01;-21365.78;;;8.40;57.19
7337;BME280;54510;42.016;23.098;2023-04-29T01:04:27;-21365.38;;;8.39;57.22
7337;BME280;54510;42.016;23.098;2023-04-29T01:15:03;-21357.84;;;8.11;58.53
7337;BME280;54510;42.016;23.098;2023-04-29T01:17:31;-21359.09;;;8.16;58.47
7337;BME280;54510;42.016;23.098;2023-04-29T01:19:58;-21349.50;;;7.81;59.87
7337;BME280;54510;42.016;23.098;2023-04-29T01:22:24;-21347.97;;;7.75;60.54
7337;BME280;54510;42.016;23.098;2023-04-29T01:24:50;-21350.06;;;7.83;60.23
7337;BME280;54510;42.016;23.098;2023-04-29T01:32:25;-21364.53;;;8.36;57.97
7337;BME280;54510;42.016;23.098;2023-04-29T01:35:03;-21370.78;;;8.58;56.98
7337;BME280;54510;42.016;23.098;2023-04-29T01:45:35;-21353.09;;;7.94;59.20
7337;BME280;54510;42.016;23.098;2023-04-29T01:48:04;-21352.84;;;7.93;59.32
7337;BME280;54510;42.016;23.098;2023-04-29T01:50:29;-21352.97;;;7.93;58.96
7337;BME280;54510;42.016;23.098;2023-04-29T01:52:54;-21345.44;;;7.66;60.33
7337;BME280;54510;42.016;23.098;2023-04-29T01:55:20;-21348.38;;;7.77;61.11
7337;BME280;54510;42.016;23.098;2023-04-29T01:57:45;-21353.94;;;7.97;59.68
7337;BME280;54510;42.016;23.098;2023-04-29T02:00:10;-21348.66;;;7.78;60.07
7337;BME280;54510;42.016;23.098;2023-04-29T02:02:36;-21337.50;;;7.37;61.77
7337;BME280;54510;42.016;23.098;2023-04-29T02:05:01;-21339.03;;;7.43;62.32
7337;BME280;54510;42.016;23.098;2023-04-29T02:07:27;-21342.81;;;7.57;61.79
7337;BME280;54510;42.016;23.098;2023-04-29T02:09:52;-21340.56;;;7.48;62.13
7337;BME280;54510;42.016;23.098;2023-04-29T02:12:18;-21342.53;;;7.56;62.21
7337;BME280;54510;42.016;23.098;2023-04-29T02:14:43;-21344.47;;;7.63;62.23
7337;BME280;54510;42.016;23.098;2023-04-29T02:17:08;-21344.91;;;7.64;61.78
7337;BME280;54510;42.016;23.098;2023-04-29T02:19:34;-21342.38;;;7.55;61.60
7337;BME280;54510;42.016;23.098;2023-04-29T02:21:59;-21341.13;;;7.50;62.41
7337;BME280;54510;42.016;23.098;2023-04-29T02:24:25;-21336.97;;;7.35;62.99
7337;BME280;54510;42.016;23.098;2023-04-29T02:26:50;-21334.59;;;7.27;63.24
7337;BME280;54510;42.016;23.098;2023-04-29T02:29:15;-21340.56;;;7.48;63.11
7337;BME280;54510;42.016;23.098;2023-04-29T02:31:41;-21330.53;;;7.12;64.42
7337;BME280;54510;42.016;23.098;2023-04-29T02:34:06;-21323.56;;;6.87;65.34
7337;BME280;54510;42.016;23.098;2023-04-29T02:36:31;-21319.94;;;6.73;65.58
7337;BME280;54510;42.016;23.098;2023-04-29T02:38:57;-21316.03;;;6.59;66.35
7337;BME280;54510;42.016;23.098;2023-04-29T02:41:24;-21315.63;;;6.58;65.75
7337;BME280;54510;42.016;23.098;2023-04-29T02:43:49;-21321.75;;;6.80;65.65
7337;BME280;54510;42.016;23.098;2023-04-29T02:46:15;-21347.97;;;7.75;62.04
7337;BME280;54510;42.016;23.098;2023-04-29T02:48:43;-21341.69;;;7.52;61.70
7337;BME280;54510;42.016;23.098;2023-04-29T02:51:08;-21336.81;;;7.35;62.20
7337;BME280;54510;42.016;23.098;2023-04-29T02:53:34;-21339.47;;;7.44;63.61
7337;BME280;54510;42.016;23.098;2023-04-29T02:55:59;-21341.69;;;7.52;63.18
7337;BME280;54510;42.016;23.098;2023-04-29T02:58:25;-21342.81;;;7.57;63.00
7337;BME280;54510;42.016;23.098;2023-04-29T03:00:51;-21343.09;;;7.58;63.31
7337;BME280;54510;42.016;23.098;2023-04-29T03:03:16;-21343.91;;;7.61;63.19
7337;BME280;54510;42.016;23.098;2023-04-29T03:05:41;-21351.03;;;7.86;63.58
7337;BME280;54510;42.016;23.098;2023-04-29T03:08:07;-21348.38;;;7.77;62.50
7337;BME280;54510;42.016;23.098;2023-04-29T03:10:34;-21343.38;;;7.59;62.88
7337;BME280;54510;42.016;23.098;2023-04-29T03:12:59;-21338.91;;;7.42;62.52
7337;BME280;54510;42.016;23.098;2023-04-29T03:15:24;-21342.09;;;7.54;62.62
7337;BME280;54510;42.016;23.098;2023-04-29T03:17:50;-21341.56;;;7.52;63.08
7337;BME280;54510;42.016;23.098;2023-04-29T03:20:15;-21326.22;;;6.96;65.20
7337;BME280;54510;42.016;23.098;2023-04-29T03:22:40;-21345.44;;;7.66;62.96
7337;BME280;54510;42.016;23.098;2023-04-29T03:25:06;-21348.53;;;7.77;62.10
7337;BME280;54510;42.016;23.098;2023-04-29T03:27:31;-21346.44;;;7.70;61.19
7337;BME280;54510;42.016;23.098;2023-04-29T03:29:57;-21342.25;;;7.54;61.05
7337;BME280;54510;42.016;23.098;2023-04-29T03:32:22;-21337.94;;;7.39;61.26
7337;BME280;54510;42.016;23.098;2023-04-29T03:34:48;-21341.97;;;7.53;61.08
7337;BME280;54510;42.016;23.098;2023-04-29T03:37:13;-21341.97;;;7.53;61.01
7337;BME280;54510;42.016;23.098;2023-04-29T03:39:40;-21341.13;;;7.50;60.96
7337;BME280;54510;42.016;23.098;2023-04-29T03:42:05;-21341.81;;;7.53;60.86
7337;BME280;54510;42.016;23.098;2023-04-29T03:44:30;-21340.84;;;7.49;61.69
7337;BME280;54510;42.016;23.098;2023-04-29T03:46:56;-21342.25;;;7.54;61.59
7337;BME280;54510;42.016;23.098;2023-04-29T03:49:21;-21347.97;;;7.75;60.78
7337;BME280;54510;42.016;23.098;2023-04-29T03:51:47;-21349.06;;;7.79;60.74
7337;BME280;54510;42.016;23.098;2023-04-29T03:54:12;-21350.88;;;7.86;60.67
7337;BME280;54510;42.016;23.098;2023-04-29T03:56:38;-21353.66;;;7.96;60.74
7337;BME280;54510;42.016;23.098;2023-04-29T03:59:03;-21354.50;;;7.99;60.64
7337;BME280;54510;42.016;23.098;2023-04-29T04:01:28;-21352.56;;;7.92;60.26
7337;BME280;54510;42.016;23.098;2023-04-29T04:03:54;-21349.78;;;7.82;60.69
7337;BME280;54510;42.016;23.098;2023-04-29T04:06:19;-21349.78;;;7.82;61.09
7337;BME280;54510;42.016;23.098;2023-04-29T04:08:45;-21350.75;;;7.85;60.99
7337;BME280;54510;42.016;23.098;2023-04-29T04:11:10;-21351.84;;;7.89;61.54
7337;BME280;54510;42.016;23.098;2023-04-29T04:13:37;-21353.53;;;7.96;60.92
7337;BME280;54510;42.016;23.098;2023-04-29T04:16:02;-21356.59;;;8.07;60.67
7337;BME280;54510;42.016;23.098;2023-04-29T04:18:28;-21359.38;;;8.17;60.64
7337;BME280;54510;42.016;23.098;2023-04-29T04:20:53;-21360.78;;;8.22;60.30
7337;BME280;54510;42.016;23.098;2023-04-29T04:23:18;-21362.16;;;8.27;59.82
7337;BME280;54510;42.016;23.098;2023-04-29T04:25:44;-21362.56;;;8.28;60.21
7337;BME280;54510;42.016;23.098;2023-04-29T04:28:10;-21368.44;;;8.50;59.53
7337;BME280;54510;42.016;23.098;2023-04-29T04:30:35;-21368.56;;;8.50;59.50
7337;BME280;54510;42.016;23.098;2023-04-29T04:33:01;-21366.47;;;8.43;60.19
7337;BME280;54510;42.016;23.098;2023-04-29T04:35:26;-21366.63;;;8.43;60.29
7337;BME280;54510;42.016;23.098;2023-04-29T04:37:51;-21366.19;;;8.42;60.23
7337;BME280;54510;42.016;23.098;2023-04-29T04:40:17;-21367.88;;;8.48;60.20
7337;BME280;54510;42.016;23.098;2023-04-29T04:42:42;-21369.97;;;8.55;59.48
7337;BME280;54510;42.016;23.098;2023-04-29T04:45:07;-21375.09;;;8.74;59.54
7337;BME280;54510;42.016;23.098;2023-04-29T04:47:35;-21376.38;;;8.79;59.11
7337;BME280;54510;42.016;23.098;2023-04-29T04:50:00;-21375.81;;;8.77;59.20
7337;BME280;54510;42.016;23.098;2023-04-29T04:52:26;-21376.50;;;8.79;59.08
7337;BME280;54510;42.016;23.098;2023-04-29T04:54:51;-21379.00;;;8.88;59.21
7337;BME280;54510;42.016;23.098;2023-04-29T04:57:17;-21380.41;;;8.93;58.84
7337;BME280;54510;42.016;23.098;2023-04-29T04:59:42;-21380.94;;;8.95;58.52
7337;BME280;54510;42.016;23.098;2023-04-29T05:02:08;-21382.91;;;9.02;58.54
7337;BME280;54510;42.016;23.098;2023-04-29T05:04:33;-21379.00;;;8.88;58.19
7337;BME280;54510;42.016;23.098;2023-04-29T05:06:58;-21383.19;;;9.03;58.39
7337;BME280;54510;42.016;23.098;2023-04-29T05:09:24;-21385.69;;;9.13;58.11
7337;BME280;54510;42.016;23.098;2023-04-29T05:11:50;-21390.97;;;9.32;57.50
7337;BME280;54510;42.016;23.098;2023-04-29T05:14:16;-21392.06;;;9.36;57.45
7337;BME280;54510;42.016;23.098;2023-04-29T05:16:42;-21391.66;;;9.34;57.75
7337;BME280;54510;42.016;23.098;2023-04-29T05:19:08;-21395.53;;;9.48;57.14
7337;BME280;54510;42.016;23.098;2023-04-29T05:21:34;-21398.75;;;9.60;56.73
7337;BME280;54510;42.016;23.098;2023-04-29T05:23:59;-21400.13;;;9.65;56.21
7337;BME280;54510;42.016;23.098;2023-04-29T05:26:24;-21402.09;;;9.72;56.33
7337;BME280;54510;42.016;23.098;2023-04-29T05:28:50;-21400.84;;;9.68;55.79
7337;BME280;54510;42.016;23.098;2023-04-29T05:31:15;-21401.38;;;9.70;55.61
7337;BME280;54510;42.016;23.098;2023-04-29T05:33:40;-21405.56;;;9.85;55.88
7337;BME280;54510;42.016;23.098;2023-04-29T05:36:05;-21409.31;;;9.99;55.30
7337;BME280;54510;42.016;23.098;2023-04-29T05:38:31;-21410.41;;;10.03;55.08
7337;BME280;54510;42.016;23.098;2023-04-29T05:40:56;-21412.09;;;10.09;55.34
7337;BME280;54510;42.016;23.098;2023-04-29T05:43:22;-21414.59;;;10.18;55.29
7337;BME280;54510;42.016;23.098;2023-04-29T05:45:47;-21410.97;;;10.05;55.69
7337;BME280;54510;42.016;23.098;2023-04-29T05:48:12;-21408.34;;;9.95;56.28
7337;BME280;54510;42.016;23.098;2023-04-29T05:50:38;-21411.38;;;10.06;56.10
7337;BME280;54510;42.016;23.098;2023-04-29T05:53:03;-21404.72;;;9.82;56.24
7337;BME280;54510;42.016;23.098;2023-04-29T05:55:29;-21405.13;;;9.83;56.28
7337;BME280;54510;42.016;23.098;2023-04-29T05:57:54;-21404.03;;;9.79;56.56
7337;BME280;54510;42.016;23.098;2023-04-29T06:00:19;-21401.94;;;9.72;56.80
7337;BME280;54510;42.016;23.098;2023-04-29T06:02:45;-21398.75;;;9.60;56.98
7337;BME280;54510;42.016;23.098;2023-04-29T06:05:10;-21404.59;;;9.81;56.86
7337;BME280;54510;42.016;23.098;2023-04-29T06:07:35;-21409.16;;;9.98;56.51
7337;BME280;54510;42.016;23.098;2023-04-29T06:10:01;-21413.47;;;10.14;56.23
7337;BME280;54510;42.016;23.098;2023-04-29T06:12:26;-21419.88;;;10.37;55.62
7337;BME280;54510;42.016;23.098;2023-04-29T06:14:52;-21416.81;;;10.26;55.53
7337;BME280;54510;42.016;23.098;2023-04-29T06:17:17;-21423.47;;;10.50;55.27
7337;BME280;54510;42.016;23.098;2023-04-29T06:19:42;-21428.88;;;10.70;54.80
7337;BME280;54510;42.016;23.098;2023-04-29T06:22:07;-21429.59;;;10.73;53.94
7337;BME280;54510;42.016;23.098;2023-04-29T06:24:33;-21427.09;;;10.63;54.11
7337;BME280;54510;42.016;23.098;2023-04-29T06:26:58;-21430.69;;;10.77;54.09
7337;BME280;54510;42.016;23.098;2023-04-29T06:29:23;-21434.59;;;10.91;53.16
7337;BME280;54510;42.016;23.098;2023-04-29T06:31:48;-21439.16;;;11.07;53.02
7337;BME280;54510;42.016;23.098;2023-04-29T06:34:14;-21438.06;;;11.03;52.47
7337;BME280;54510;42.016;23.098;2023-04-29T06:36:39;-21438.19;;;11.04;52.78
7337;BME280;54510;42.016;23.098;2023-04-29T06:39:05;-21439.28;;;11.08;52.53
7337;BME280;54510;42.016;23.098;2023-04-29T06:41:31;-21442.06;;;11.18;52.44
7337;BME280;54510;42.016;23.098;2023-04-29T06:43:56;-21434.59;;;10.91;53.16
7337;BME280;54510;42.016;23.098;2023-04-29T06:46:21;-21444.97;;;11.29;52.86
7337;BME280;54510;42.016;23.098;2023-04-29T06:48:46;-21449.28;;;11.44;52.61
7337;BME280;54510;42.016;23.098;2023-04-29T06:51:12;-21451.50;;;11.53;51.87
7337;BME280;54510;42.016;23.098;2023-04-29T06:53:37;-21449.97;;;11.47;51.75
7337;BME280;54510;42.016;23.098;2023-04-29T06:56:02;-21456.78;;;11.72;51.04
7337;BME280;54510;42.016;23.098;2023-04-29T06:58:28;-21467.03;;;12.09;51.54
7337;BME280;54510;42.016;23.098;2023-04-29T07:00:54;-21473.13;;;12.32;50.64
7337;BME280;54510;42.016;23.098;2023-04-29T07:03:19;-21464.41;;;12.00;49.71
7337;BME280;54510;42.016;23.098;2023-04-29T07:05:44;-21463.72;;;11.97;49.88
7337;BME280;54510;42.016;23.098;2023-04-29T07:08:10;-21470.22;;;12.21;48.99
7337;BME280;54510;42.016;23.098;2023-04-29T07:10:37;-21469.09;;;12.17;48.57
7337;BME280;54510;42.016;23.098;2023-04-29T07:13:02;-21472.84;;;12.31;48.64
7337;BME280;54510;42.016;23.098;2023-04-29T07:15:28;-21479.91;;;12.56;48.32
7337;BME280;54510;42.016;23.098;2023-04-29T07:17:54;-21485.44;;;12.77;47.83
7337;BME280;54510;42.016;23.098;2023-04-29T07:20:20;-21483.78;;;12.71;47.91
7337;BME280;54510;42.016;23.098;2023-04-29T07:22:45;-21493.75;;;13.07;47.76
7337;BME280;54510;42.016;23.098;2023-04-29T07:25:11;-21492.09;;;13.01;48.71
7337;BME280;54510;42.016;23.098;2023-04-29T07:27:36;-21498.47;;;13.24;49.22
7337;BME280;54510;42.016;23.098;2023-04-29T07:30:02;-21504.28;;;13.45;49.01
7337;BME280;54510;42.016;23.098;2023-04-29T07:32:28;-21506.22;;;13.53;48.85
7337;BME280;54510;42.016;23.098;2023-04-29T07:34:53;-21510.50;;;13.68;49.75
7337;BME280;54510;42.016;23.098;2023-04-29T07:37:18;-21507.59;;;13.58;49.26
7337;BME280;54510;42.016;23.098;2023-04-29T07:39:44;-21508.44;;;13.61;49.54
7337;BME280;54510;42.016;23.098;2023-04-29T07:42:09;-21502.47;;;13.39;50.14
7337;BME280;54510;42.016;23.098;2023-04-29T07:44:34;-21498.88;;;13.26;51.01
7337;BME280;54510;42.016;23.098;2023-04-29T07:47:00;-21499.28;;;13.27;50.96
7337;BME280;54510;42.016;23.098;2023-04-29T07:49:25;-21499.16;;;13.27;50.91
7337;BME280;54510;42.016;23.098;2023-04-29T07:51:51;-21501.09;;;13.34;50.93
7337;BME280;54510;42.016;23.098;2023-04-29T07:54:16;-21505.53;;;13.50;51.05
7337;BME280;54510;42.016;23.098;2023-04-29T07:56:43;-21507.59;;;13.58;51.20
7337;BME280;54510;42.016;23.098;2023-04-29T07:59:08;-21510.22;;;13.67;51.07
7337;BME280;54510;42.016;23.098;2023-04-29T08:01:34;-21510.78;;;13.69;51.77
7337;BME280;54510;42.016;23.098;2023-04-29T08:03:59;-21512.16;;;13.74;50.77
7337;BME280;54510;42.016;23.098;2023-04-29T08:06:24;-21535.09;;;14.58;49.01
7337;BME280;54510;42.016;23.098;2023-04-29T08:08:49;-21543.25;;;14.88;48.87
7337;BME280;54510;42.016;23.098;2023-04-29T08:11:18;-21558.72;;;15.45;47.92
7337;BME280;54510;42.016;23.098;2023-04-29T08:13:44;-21567.97;;;15.79;47.00
7337;BME280;54510;42.016;23.098;2023-04-29T08:16:09;-21574.44;;;16.03;46.42
7337;BME280;54510;42.016;23.098;2023-04-29T08:18:35;-21578.72;;;16.18;45.83
7337;BME280;54510;42.016;23.098;2023-04-29T08:21:00;-21587.41;;;16.50;45.64
7337;BME280;54510;42.016;23.098;2023-04-29T08:23:26;-21586.16;;;16.46;44.57
7337;BME280;54510;42.016;23.098;2023-04-29T08:25:51;-21587.94;;;16.52;43.52
7337;BME280;54510;42.016;23.098;2023-04-29T08:28:17;-21592.78;;;16.70;43.10
7337;BME280;54510;42.016;23.098;2023-04-29T08:30:43;-21598.00;;;16.89;43.18
7337;BME280;54510;42.016;23.098;2023-04-29T08:33:08;-21607.78;;;17.25;42.19
7337;BME280;54510;42.016;23.098;2023-04-29T08:35:34;-21614.53;;;17.50;42.04
7337;BME280;54510;42.016;23.098;2023-04-29T08:38:03;-21610.41;;;17.35;39.63
7337;BME280;54510;42.016;23.098;2023-04-29T08:40:29;-21624.16;;;17.86;38.50
7337;BME280;54510;42.016;23.098;2023-04-29T08:42:55;-21628.28;;;18.01;38.13
7337;BME280;54510;42.016;23.098;2023-04-29T08:45:21;-21635.44;;;18.27;36.93
7337;BME280;54510;42.016;23.098;2023-04-29T08:47:48;-21648.38;;;18.75;35.37
7337;BME280;54510;42.016;23.098;2023-04-29T08:50:15;-21656.59;;;19.05;34.79
7337;BME280;54510;42.016;23.098;2023-04-29T08:52:41;-21661.81;;;19.24;33.82
7337;BME280;54510;42.016;23.098;2023-04-29T08:55:06;-21661.28;;;19.22;33.90
7337;BME280;54510;42.016;23.098;2023-04-29T08:57:34;-21656.19;;;19.04;32.84
7337;BME280;54510;42.016;23.098;2023-04-29T09:00:04;-21660.72;;;19.20;32.77
7337;BME280;54510;42.016;23.098;2023-04-29T09:02:30;-21636.25;;;18.30;33.55
7337;BME280;54510;42.016;23.098;2023-04-29T09:04:59;-21653.59;;;18.94;31.90
7337;BME280;54510;42.016;23.098;2023-04-29T09:07:28;-21660.31;;;19.19;32.07
7337;BME280;54510;42.016;23.098;2023-04-29T09:09:55;-21657.16;;;19.07;32.20
7337;BME280;54510;42.016;23.098;2023-04-29T09:12:21;-21651.53;;;18.86;33.82
7337;BME280;54510;42.016;23.098;2023-04-29T09:14:46;-21647.81;;;18.73;34.03
7337;BME280;54510;42.016;23.098;2023-04-29T09:17:12;-21640.38;;;18.45;34.97
7337;BME280;54510;42.016;23.098;2023-04-29T09:19:37;-21648.50;;;18.75;35.14
7337;BME280;54510;42.016;23.098;2023-04-29T09:22:02;-21650.69;;;18.83;35.77
7337;BME280;54510;42.016;23.098;2023-04-29T09:24:29;-21641.47;;;18.49;36.74
7337;BME280;54510;42.016;23.098;2023-04-29T09:26:55;-21639.28;;;18.41;36.97
7337;BME280;54510;42.016;23.098;2023-04-29T09:29:20;-21639.00;;;18.40;36.99
7337;BME280;54510;42.016;23.098;2023-04-29T09:31:46;-21653.72;;;18.94;36.84
7337;BME280;54510;42.016;23.098;2023-04-29T09:34:11;-21637.22;;;18.34;36.85
7337;BME280;54510;42.016;23.098;2023-04-29T09:39:02;-21642.88;;;18.54;36.78
7337;BME280;54510;42.016;23.098;2023-04-29T09:41:29;-21621.28;;;17.75;36.55
7337;BME280;54510;42.016;23.098;2023-04-29T09:44:04;-21631.31;;;18.12;37.19
7337;BME280;54510;42.016;23.098;2023-04-29T09:46:31;-21646.03;;;18.66;36.01
7337;BME280;54510;42.016;23.098;2023-04-29T09:48:57;-21649.72;;;18.80;36.87
7337;BME280;54510;42.016;23.098;2023-04-29T09:51:22;-21653.84;;;18.95;36.01
7337;BME280;54510;42.016;23.098;2023-04-29T09:53:48;-21624.16;;;17.86;34.86
7337;BME280;54510;42.016;23.098;2023-04-29T09:56:13;-21612.59;;;17.43;34.80
7337;BME280;54510;42.016;23.098;2023-04-29T09:58:38;-21629.94;;;18.07;33.94
7337;BME280;54510;42.016;23.098;2023-04-29T10:01:04;-21635.31;;;18.27;33.10
7337;BME280;54510;42.016;23.098;2023-04-29T10:03:34;-21640.53;;;18.46;33.40
7337;BME280;54510;42.016;23.098;2023-04-29T10:06:00;-21640.81;;;18.47;33.25
7337;BME280;54510;42.016;23.098;2023-04-29T10:08:26;-21642.59;;;18.53;34.76
7337;BME280;54510;42.016;23.098;2023-04-29T10:10:53;-21626.63;;;17.95;36.21
7337;BME280;54510;42.016;23.098;2023-04-29T10:13:24;-21632.81;;;18.17;37.33
7337;BME280;54510;42.016;23.098;2023-04-29T10:15:51;-21621.41;;;17.75;38.26
7337;BME280;54510;42.016;23.098;2023-04-29T10:18:20;-21636.25;;;18.30;38.38
7337;BME280;54510;42.016;23.098;2023-04-29T10:20:50;-21624.44;;;17.87;38.29
7337;BME280;54510;42.016;23.098;2023-04-29T10:23:16;-21628.00;;;18.00;37.05
7337;BME280;54510;42.016;23.098;2023-04-29T10:25:42;-21615.63;;;17.54;36.79
7337;BME280;54510;42.016;23.098;2023-04-29T10:28:08;-21626.91;;;17.96;36.03
7337;BME280;54510;42.016;23.098;2023-04-29T10:30:36;-21639.69;;;18.43;34.94
7337;BME280;54510;42.016;23.098;2023-04-29T10:33:02;-21632.13;;;18.15;33.62
7337;BME280;54510;42.016;23.098;2023-04-29T10:35:28;-21636.94;;;18.33;33.92
7337;BME280;54510;42.016;23.098;2023-04-29T10:37:55;-21629.13;;;18.04;33.60
7337;BME280;54510;42.016;23.098;2023-04-29T10:40:26;-21623.47;;;17.83;34.25
7337;BME280;54510;42.016;23.098;2023-04-29T10:42:54;-21643.16;;;18.56;33.79
7337;BME280;54510;42.016;23.098;2023-04-29T10:45:20;-21645.06;;;18.63;33.24
7337;BME280;54510;42.016;23.098;2023-04-29T10:51:16;-21657.56;;;19.09;32.26
7337;BME280;54510;42.016;23.098;2023-04-29T10:53:15;-21661.41;;;19.23;31.21
7337;BME280;54510;42.016;23.098;2023-04-29T10:55:41;-21661.53;;;19.23;30.70
7337;BME280;54510;42.016;23.098;2023-04-29T10:58:49;-21649.47;;;18.79;30.68
7337;BME280;54510;42.016;23.098;2023-04-29T11:00:55;-21649.47;;;18.79;31.49
7337;BME280;54510;42.016;23.098;2023-04-29T11:06:07;-21643.81;;;18.58;30.95
7337;BME280;54510;42.016;23.098;2023-04-29T11:08:36;-21646.72;;;18.69;30.56
7337;BME280;54510;42.016;23.098;2023-04-29T11:11:03;-21646.44;;;18.68;30.02
7337;BME280;54510;42.016;23.098;2023-04-29T11:13:30;-21657.44;;;19.08;30.19
7337;BME280;54510;42.016;23.098;2023-04-29T11:18:30;-21667.16;;;19.44;29.16
7337;BME280;54510;42.016;23.098;2023-04-29T11:21:16;-21667.31;;;19.45;28.79
7337;BME280;54510;42.016;23.098;2023-04-29T11:23:40;-21672.13;;;19.62;29.41
7337;BME280;54510;42.016;23.098;2023-04-29T11:26:06;-21667.31;;;19.45;29.35
7337;BME280;54510;42.016;23.098;2023-04-29T11:28:32;-21674.19;;;19.70;30.27
7337;BME280;54510;42.016;23.098;2023-04-29T11:30:58;-21682.69;;;20.01;29.46
7337;BME280;54510;42.016;23.098;2023-04-29T11:33:23;-21682.25;;;20.00;28.95
7337;BME280;54510;42.016;23.098;2023-04-29T11:35:49;-21684.88;;;20.09;28.95
7337;BME280;54510;42.016;23.098;2023-04-29T11:38:15;-21691.72;;;20.35;28.88
7337;BME280;54510;42.016;23.098;2023-04-29T11:40:49;-21693.38;;;20.41;28.81
7337;BME280;54510;42.016;23.098;2023-04-29T11:43:18;-21696.25;;;20.52;29.07
7337;BME280;54510;42.016;23.098;2023-04-29T11:45:43;-21693.38;;;20.41;28.32
7337;BME280;54510;42.016;23.098;2023-04-29T11:48:09;-21695.72;;;20.49;27.69
7337;BME280;54510;42.016;23.098;2023-04-29T11:50:41;-21702.41;;;20.74;27.46
7337;BME280;54510;42.016;23.098;2023-04-29T11:53:06;-21703.78;;;20.79;27.46
7337;BME280;54510;42.016;23.098;2023-04-29T11:55:32;-21701.31;;;20.70;28.40
7337;BME280;54510;42.016;23.098;2023-04-29T11:57:58;-21703.50;;;20.78;28.02
7337;BME280;54510;42.016;23.098;2023-04-29T12:00:24;-21708.72;;;20.98;27.27
7337;BME280;54510;42.016;23.098;2023-04-29T12:02:49;-21710.50;;;21.04;26.99
7337;BME280;54510;42.016;23.098;2023-04-29T12:05:14;-21711.88;;;21.09;27.33
7337;BME280;54510;42.016;23.098;2023-04-29T12:07:40;-21709.28;;;21.00;27.32
7337;BME280;54510;42.016;23.098;2023-04-29T12:10:09;-21705.56;;;20.86;28.27
7337;BME280;54510;42.016;23.098;2023-04-29T12:12:35;-21711.19;;;21.07;27.67
7337;BME280;54510;42.016;23.098;2023-04-29T12:15:01;-21710.78;;;21.05;27.97
7337;BME280;54510;42.016;23.098;2023-04-29T12:17:27;-21711.19;;;21.07;27.92
7337;BME280;54510;42.016;23.098;2023-04-29T12:19:53;-21711.06;;;21.06;28.29
7337;BME280;54510;42.016;23.098;2023-04-29T12:22:18;-21711.06;;;21.06;28.02
7337;BME280;54510;42.016;23.098;2023-04-29T12:24:44;-21712.97;;;21.13;27.90
7337;BME280;54510;42.016;23.098;2023-04-29T12:27:09;-21715.16;;;21.21;28.01
7337;BME280;54510;42.016;23.098;2023-04-29T12:29:37;-21715.97;;;21.24;27.81
7337;BME280;54510;42.016;23.098;2023-04-29T12:32:04;-21715.03;;;21.21;27.79
7337;BME280;54510;42.016;23.098;2023-04-29T12:34:30;-21716.66;;;21.27;27.66
7337;BME280;54510;42.016;23.098;2023-04-29T12:36:56;-21709.53;;;21.01;28.03
7337;BME280;54510;42.016;23.098;2023-04-29T12:39:22;-21711.88;;;21.09;28.13
7337;BME280;54510;42.016;23.098;2023-04-29T12:41:47;-21713.66;;;21.16;28.08
7337;BME280;54510;42.016;23.098;2023-04-29T12:44:12;-21710.78;;;21.05;28.13
7337;BME280;54510;42.016;23.098;2023-04-29T12:46:38;-21713.66;;;21.16;28.23
7337;BME280;54510;42.016;23.098;2023-04-29T12:49:04;-21713.94;;;21.17;28.18
7337;BME280;54510;42.016;23.098;2023-04-29T12:51:30;-21712.41;;;21.11;28.15
7337;BME280;54510;42.016;23.098;2023-04-29T12:53:56;-21702.81;;;20.76;28.59
7337;BME280;54510;42.016;23.098;2023-04-29T12:56:22;-21707.06;;;20.92;28.47
7337;BME280;54510;42.016;23.098;2023-04-29T12:58:47;-21701.59;;;20.71;28.81
7337;BME280;54510;42.016;23.098;2023-04-29T13:01:13;-21705.44;;;20.85;29.03
7337;BME280;54510;42.016;23.098;2023-04-29T13:03:38;-21703.38;;;20.78;28.80
7337;BME280;54510;42.016;23.098;2023-04-29T13:06:04;-21699.41;;;20.63;29.01
7337;BME280;54510;42.016;23.098;2023-04-29T13:08:30;-21686.50;;;20.16;29.74
7337;BME280;54510;42.016;23.098;2023-04-29T13:10:55;-21683.22;;;20.03;30.26
7337;BME280;54510;42.016;23.098;2023-04-29T13:13:20;-21685.97;;;20.13;30.90
7337;BME280;54510;42.016;23.098;2023-04-29T13:15:48;-21672.25;;;19.63;32.08
7337;BME280;54510;42.016;23.098;2023-04-29T13:18:13;-21669.50;;;19.53;32.51
7337;BME280;54510;42.016;23.098;2023-04-29T13:20:39;-21671.16;;;19.59;33.15